sensor_id;sensor_type;location;lat;lon;timestamp;pressure;altitude;pressure_sealevel;temperature;humidity
7754;BME280;3921;42.266;23.122;2023-01-27T00:00:53;94823.47;;;3.77;84.40
7754;BME280;3921;42.266;23.122;2023-01-27T00:03:20;94389.72;;;0.90;85.02
7754;BME280;3921;42.266;23.122;2023-01-27T00:05:47;94560.59;;;2.31;84.76
7754;BME280;3921;42.266;23.122;2023-01-27T00:08:16;94388.44;;;1.20;84.64
7754;BME280;3921;42.266;23.122;2023-01-27T00:10:44;94457.28;;;1.50;85.14
7754;BME280;3921;42.266;23.122;2023-01-27T00:13:12;94277.88;;;0.46;85.01
7754;BME280;3921;42.266;23.122;2023-01-27T00:15:56;94284.59;;;0.55;84.25
7754;BME280;3921;42.266;23.122;2023-01-27T00:18:23;94276.44;;;0.62;84.21
7754;BME280;3921;42.266;23.122;2023-01-27T00:20:51;94429.13;;;1.43;84.09
7754;BME280;3921;42.266;23.122;2023-01-27T00:23:37;94530.41;;;1.92;84.41
7754;BME280;3921;42.266;23.122;2023-01-27T00:26:23;94563.09;;;2.34;84.66
7754;BME280;3921;42.266;23.122;2023-01-27T00:28:50;94224.13;;;0.28;83.99
7754;BME280;3921;42.266;23.122;2023-01-27T00:31:18;94229.25;;;0.43;83.03
7754;BME280;3921;42.266;23.122;2023-01-27T00:34:02;94253.13;;;0.41;83.10
7754;BME280;3921;42.266;23.122;2023-01-27T00:36:35;94673.00;;;3.09;84.02
7754;BME280;3921;42.266;23.122;2023-01-27T00:39:04;94223.13;;;0.14;84.08
7754;BME280;3921;42.266;23.122;2023-01-27T00:41:31;94376.00;;;1.14;83.96
7754;BME280;3921;42.266;23.122;2023-01-27T00:43:59;94585.41;;;2.34;84.47
7754;BME280;3921;42.266;23.122;2023-01-27T00:46:26;94463.22;;;1.64;84.47
7754;BME280;3921;42.266;23.122;2023-01-27T00:48:53;94774.53;;;3.68;84.45
7754;BME280;3921;42.266;23.122;2023-01-27T00:51:21;94343.25;;;0.66;83.95
7754;BME280;3921;42.266;23.122;2023-01-27T00:53:49;94458.41;;;1.76;83.57
7754;BME280;3921;42.266;23.122;2023-01-27T00:56:18;94257.97;;;0.34;83.12
7754;BME280;3921;42.266;23.122;2023-01-27T00:58:45;94393.38;;;1.20;83.23
7754;BME280;3921;42.266;23.122;2023-01-27T01:01:14;94634.81;;;2.93;83.32
7754;BME280;3921;42.266;23.122;2023-01-27T01:03:42;94606.31;;;2.58;83.38
7754;BME280;3921;42.266;23.122;2023-01-27T01:06:11;94264.75;;;0.50;83.63
7754;BME280;3921;42.266;23.122;2023-01-27T01:08:38;94489.00;;;1.81;83.40
7754;BME280;3921;42.266;23.122;2023-01-27T01:11:07;94570.81;;;2.59;82.66
7754;BME280;3921;42.266;23.122;2023-01-27T01:13:36;94659.81;;;3.13;82.18
7754;BME280;3921;42.266;23.122;2023-01-27T01:16:07;94647.81;;;2.70;82.47
7754;BME280;3921;42.266;23.122;2023-01-27T01:18:35;94278.91;;;0.59;82.01
7754;BME280;3921;42.266;23.122;2023-01-27T01:21:03;94191.84;;;0.13;82.01
7754;BME280;3921;42.266;23.122;2023-01-27T01:23:31;94269.00;;;0.59;81.97
7754;BME280;3921;42.266;23.122;2023-01-27T01:25:58;94762.06;;;3.64;81.90
7754;BME280;3921;42.266;23.122;2023-01-27T01:28:25;94374.47;;;1.23;81.73
7754;BME280;3921;42.266;23.122;2023-01-27T01:30:54;94468.25;;;1.70;82.92
7754;BME280;3921;42.266;23.122;2023-01-27T01:33:21;94202.53;;;0.13;82.63
7754;BME280;3921;42.266;23.122;2023-01-27T01:35:49;94673.03;;;3.12;82.86
7754;BME280;3921;42.266;23.122;2023-01-27T01:38:17;94219.16;;;0.23;82.03
7754;BME280;3921;42.266;23.122;2023-01-27T01:40:44;94259.00;;;0.49;82.73
7754;BME280;3921;42.266;23.122;2023-01-27T01:43:13;94341.97;;;0.93;82.47
7754;BME280;3921;42.266;23.122;2023-01-27T01:45:52;94777.09;;;3.76;83.42
7754;BME280;3921;42.266;23.122;2023-01-27T01:48:26;94449.31;;;1.74;83.26
7754;BME280;3921;42.266;23.122;2023-01-27T01:50:58;94766.41;;;3.85;83.31
7754;BME280;3921;42.266;23.122;2023-01-27T01:53:31;94226.94;;;0.54;83.10
7754;BME280;3921;42.266;23.122;2023-01-27T01:56:01;94193.84;;;0.43;82.41
7754;BME280;3921;42.266;23.122;2023-01-27T01:58:31;94738.22;;;3.83;82.54
7754;BME280;3921;42.266;23.122;2023-01-27T02:01:01;94366.66;;;1.64;81.84
7754;BME280;3921;42.266;23.122;2023-01-27T02:03:31;94636.00;;;3.34;81.73
7754;BME280;3921;42.266;23.122;2023-01-27T02:06:00;94614.97;;;2.97;81.87
7754;BME280;3921;42.266;23.122;2023-01-27T02:08:30;94587.53;;;2.80;83.26
7754;BME280;3921;42.266;23.122;2023-01-27T02:11:00;94490.31;;;2.25;83.25
7754;BME280;3921;42.266;23.122;2023-01-27T02:13:27;94322.56;;;1.26;83.10
7754;BME280;3921;42.266;23.122;2023-01-27T02:15:54;94172.00;;;0.08;83.09
7754;BME280;3921;42.266;23.122;2023-01-27T02:18:21;94341.41;;;1.15;84.22
7754;BME280;3921;42.266;23.122;2023-01-27T02:20:52;94649.81;;;3.07;84.69
7754;BME280;3921;42.266;23.122;2023-01-27T02:23:28;94633.06;;;2.86;84.44
7754;BME280;3921;42.266;23.122;2023-01-27T02:26:01;94238.34;;;0.44;83.24
7754;BME280;3921;42.266;23.122;2023-01-27T02:28:32;94203.66;;;0.38;83.70
7754;BME280;3921;42.266;23.122;2023-01-27T02:31:00;94479.16;;;1.88;83.91
7754;BME280;3921;42.266;23.122;2023-01-27T02:33:28;94727.31;;;3.67;84.01
7754;BME280;3921;42.266;23.122;2023-01-27T02:36:03;94163.63;;;-0.03;83.65
7754;BME280;3921;42.266;23.122;2023-01-27T02:38:39;94518.63;;;2.50;83.81
7754;BME280;3921;42.266;23.122;2023-01-27T02:41:13;94736.41;;;3.66;84.71
7754;BME280;3921;42.266;23.122;2023-01-27T02:43:42;94229.34;;;0.51;83.78
7754;BME280;3921;42.266;23.122;2023-01-27T02:46:10;94141.56;;;0.11;83.77
7754;BME280;3921;42.266;23.122;2023-01-27T02:48:38;94184.63;;;0.30;83.92
7754;BME280;3921;42.266;23.122;2023-01-27T02:51:06;94729.91;;;3.81;83.57
7754;BME280;3921;42.266;23.122;2023-01-27T02:53:34;94197.03;;;0.34;83.41
7754;BME280;3921;42.266;23.122;2023-01-27T02:56:05;94733.16;;;3.72;84.04
7754;BME280;3921;42.266;23.122;2023-01-27T02:58:37;94199.81;;;0.60;83.06
7754;BME280;3921;42.266;23.122;2023-01-27T03:01:06;94196.47;;;0.55;83.03
7754;BME280;3921;42.266;23.122;2023-01-27T03:03:34;94536.78;;;2.46;83.22
7754;BME280;3921;42.266;23.122;2023-01-27T03:06:11;94604.41;;;3.16;83.07
7754;BME280;3921;42.266;23.122;2023-01-27T03:08:39;94479.59;;;2.29;83.67
7754;BME280;3921;42.266;23.122;2023-01-27T03:11:07;94276.50;;;1.39;82.09
7754;BME280;3921;42.266;23.122;2023-01-27T03:13:37;94161.72;;;0.41;82.50
7754;BME280;3921;42.266;23.122;2023-01-27T03:16:06;94728.25;;;3.80;82.88
7754;BME280;3921;42.266;23.122;2023-01-27T03:18:51;94165.03;;;0.45;82.76
7754;BME280;3921;42.266;23.122;2023-01-27T03:21:21;94116.94;;;0.17;83.52
7754;BME280;3921;42.266;23.122;2023-01-27T03:23:48;94283.53;;;1.02;83.46
7754;BME280;3921;42.266;23.122;2023-01-27T03:26:16;94112.69;;;0.05;83.36
7754;BME280;3921;42.266;23.122;2023-01-27T03:28:44;94313.56;;;1.38;83.48
7754;BME280;3921;42.266;23.122;2023-01-27T03:31:34;94146.16;;;0.51;83.62
7754;BME280;3921;42.266;23.122;2023-01-27T03:34:02;94139.34;;;0.31;83.56
7754;BME280;3921;42.266;23.122;2023-01-27T03:36:30;94136.03;;;0.29;82.75
7754;BME280;3921;42.266;23.122;2023-01-27T03:39:14;94107.25;;;0.31;83.07
7754;BME280;3921;42.266;23.122;2023-01-27T03:42:08;94115.53;;;0.36;83.52
7754;BME280;3921;42.266;23.122;2023-01-27T03:44:54;94647.81;;;3.67;83.73
7754;BME280;3921;42.266;23.122;2023-01-27T03:47:39;94202.47;;;0.78;83.53
7754;BME280;3921;42.266;23.122;2023-01-27T03:50:11;94428.31;;;2.19;84.00
7754;BME280;3921;42.266;23.122;2023-01-27T03:52:43;94145.94;;;0.30;83.83
7754;BME280;3921;42.266;23.122;2023-01-27T03:55:27;94570.41;;;3.04;84.79
7754;BME280;3921;42.266;23.122;2023-01-27T03:57:55;94526.19;;;2.62;85.22
7754;BME280;3921;42.266;23.122;2023-01-27T04:00:31;94126.88;;;0.21;85.34
7754;BME280;3921;42.266;23.122;2023-01-27T04:02:58;94545.28;;;2.72;85.34
7754;BME280;3921;42.266;23.122;2023-01-27T04:05:43;94160.78;;;0.32;85.51
7754;BME280;3921;42.266;23.122;2023-01-27T04:08:27;94304.28;;;1.15;85.64
7754;BME280;3921;42.266;23.122;2023-01-27T04:11:01;94393.31;;;1.85;84.50
7754;BME280;3921;42.266;23.122;2023-01-27T04:13:41;94697.50;;;3.65;85.18
7754;BME280;3921;42.266;23.122;2023-01-27T04:16:13;94148.31;;;0.22;84.51
7754;BME280;3921;42.266;23.122;2023-01-27T04:18:44;94126.59;;;-0.03;84.94
7754;BME280;3921;42.266;23.122;2023-01-27T04:21:12;94492.03;;;2.30;84.53
7754;BME280;3921;42.266;23.122;2023-01-27T04:23:39;94564.97;;;2.57;84.24
7754;BME280;3921;42.266;23.122;2023-01-27T04:26:06;94493.75;;;2.37;83.60
7754;BME280;3921;42.266;23.122;2023-01-27T04:28:33;94344.13;;;1.40;83.47
7754;BME280;3921;42.266;23.122;2023-01-27T04:31:00;94409.94;;;1.97;83.56
7754;BME280;3921;42.266;23.122;2023-01-27T04:33:29;94185.69;;;0.48;83.38
7754;BME280;3921;42.266;23.122;2023-01-27T04:35:56;94271.72;;;0.78;84.07
7754;BME280;3921;42.266;23.122;2023-01-27T04:38:23;94376.56;;;1.66;84.40
7754;BME280;3921;42.266;23.122;2023-01-27T04:40:50;94701.53;;;3.53;85.39
7754;BME280;3921;42.266;23.122;2023-01-27T04:43:17;94234.44;;;0.62;84.78
7754;BME280;3921;42.266;23.122;2023-01-27T04:45:44;94550.34;;;2.81;83.57
7754;BME280;3921;42.266;23.122;2023-01-27T04:48:11;94207.47;;;0.83;82.92
7754;BME280;3921;42.266;23.122;2023-01-27T04:50:40;94186.72;;;0.69;82.73
7754;BME280;3921;42.266;23.122;2023-01-27T04:53:07;94189.03;;;0.55;82.18
7754;BME280;3921;42.266;23.122;2023-01-27T04:55:34;94261.56;;;0.57;83.42
7754;BME280;3921;42.266;23.122;2023-01-27T04:58:01;94182.84;;;0.18;83.66
7754;BME280;3921;42.266;23.122;2023-01-27T05:00:30;94344.84;;;1.26;84.74
7754;BME280;3921;42.266;23.122;2023-01-27T05:02:57;94478.69;;;2.19;84.43
7754;BME280;3921;42.266;23.122;2023-01-27T05:05:24;94178.75;;;0.18;84.30
7754;BME280;3921;42.266;23.122;2023-01-27T05:07:52;94561.53;;;2.41;85.01
7754;BME280;3921;42.266;23.122;2023-01-27T05:10:19;94067.66;;;-0.45;84.51
7754;BME280;3921;42.266;23.122;2023-01-27T05:12:46;94345.47;;;1.13;84.03
7754;BME280;3921;42.266;23.122;2023-01-27T05:15:14;94192.19;;;0.42;84.04
7754;BME280;3921;42.266;23.122;2023-01-27T05:17:41;94259.47;;;0.86;84.10
7754;BME280;3921;42.266;23.122;2023-01-27T05:20:09;94335.19;;;1.51;83.90
7754;BME280;3921;42.266;23.122;2023-01-27T05:22:36;94131.41;;;-0.14;84.58
7754;BME280;3921;42.266;23.122;2023-01-27T05:25:05;94401.31;;;1.63;84.92
7754;BME280;3921;42.266;23.122;2023-01-27T05:27:33;94613.47;;;3.14;84.06
7754;BME280;3921;42.266;23.122;2023-01-27T05:30:00;94490.38;;;2.34;83.59
7754;BME280;3921;42.266;23.122;2023-01-27T05:32:27;94394.19;;;1.90;83.12
7754;BME280;3921;42.266;23.122;2023-01-27T05:34:54;94306.03;;;1.25;82.76
7754;BME280;3921;42.266;23.122;2023-01-27T05:37:21;94421.31;;;1.81;83.78
7754;BME280;3921;42.266;23.122;2023-01-27T05:39:48;94663.22;;;3.26;83.49
7754;BME280;3921;42.266;23.122;2023-01-27T05:42:16;94169.69;;;0.20;83.76
7754;BME280;3921;42.266;23.122;2023-01-27T05:44:43;94605.03;;;2.95;84.37
7754;BME280;3921;42.266;23.122;2023-01-27T05:47:10;94570.16;;;2.80;83.20
7754;BME280;3921;42.266;23.122;2023-01-27T05:49:40;94229.25;;;0.43;83.79
7754;BME280;3921;42.266;23.122;2023-01-27T05:52:13;94168.66;;;0.03;83.69
7754;BME280;3921;42.266;23.122;2023-01-27T05:54:40;94116.81;;;0.03;83.20
7754;BME280;3921;42.266;23.122;2023-01-27T05:57:07;94203.53;;;0.28;84.70
7754;BME280;3921;42.266;23.122;2023-01-27T06:04:46;94227.06;;;0.65;83.88
7754;BME280;3921;42.266;23.122;2023-01-27T06:07:13;94664.13;;;3.36;84.07
7754;BME280;3921;42.266;23.122;2023-01-27T06:09:40;94240.06;;;0.50;84.76
7754;BME280;3921;42.266;23.122;2023-01-27T06:14:52;94189.44;;;0.19;85.38
7754;BME280;3921;42.266;23.122;2023-01-27T06:17:22;94161.31;;;0.09;85.77
7754;BME280;3921;42.266;23.122;2023-01-27T06:19:54;94584.00;;;2.58;86.06
7754;BME280;3921;42.266;23.122;2023-01-27T06:22:22;94210.38;;;0.47;85.05
7754;BME280;3921;42.266;23.122;2023-01-27T06:25:07;94648.88;;;2.96;85.59
7754;BME280;3921;42.266;23.122;2023-01-27T06:27:34;94287.44;;;0.85;86.01
7754;BME280;3921;42.266;23.122;2023-01-27T06:30:03;94297.31;;;0.84;86.02
7754;BME280;3921;42.266;23.122;2023-01-27T06:32:33;94767.19;;;3.82;85.11
7754;BME280;3921;42.266;23.122;2023-01-27T06:35:17;94359.56;;;1.19;84.43
7754;BME280;3921;42.266;23.122;2023-01-27T06:37:47;94153.03;;;0.06;84.31
7754;BME280;3921;42.266;23.122;2023-01-27T06:40:16;94173.75;;;0.15;85.13
7754;BME280;3921;42.266;23.122;2023-01-27T06:42:52;94209.44;;;0.37;85.88
7754;BME280;3921;42.266;23.122;2023-01-27T06:45:32;94203.72;;;0.43;85.25
7754;BME280;3921;42.266;23.122;2023-01-27T06:48:18;94369.78;;;1.46;84.44
7754;BME280;3921;42.266;23.122;2023-01-27T06:50:58;94349.16;;;1.44;84.50
7754;BME280;3921;42.266;23.122;2023-01-27T06:53:27;94561.66;;;2.53;84.96
7754;BME280;3921;42.266;23.122;2023-01-27T06:55:56;94605.00;;;2.89;84.37
7754;BME280;3921;42.266;23.122;2023-01-27T06:58:47;94497.97;;;2.51;83.55
7754;BME280;3921;42.266;23.122;2023-01-27T07:01:36;94506.06;;;2.33;83.73
7754;BME280;3921;42.266;23.122;2023-01-27T07:09:55;94635.13;;;3.29;83.46
7754;BME280;3921;42.266;23.122;2023-01-27T07:12:28;94176.41;;;0.31;82.32
7754;BME280;3921;42.266;23.122;2023-01-27T07:15:24;94246.03;;;0.69;82.12
7754;BME280;3921;42.266;23.122;2023-01-27T07:24:47;94302.41;;;0.94;83.22
7754;BME280;3921;42.266;23.122;2023-01-27T07:27:17;94340.72;;;1.30;83.00
7754;BME280;3921;42.266;23.122;2023-01-27T07:29:47;94544.31;;;2.58;83.66
7754;BME280;3921;42.266;23.122;2023-01-27T07:32:14;94437.00;;;1.80;84.34
7754;BME280;3921;42.266;23.122;2023-01-27T07:34:41;94745.72;;;3.89;83.60
7754;BME280;3921;42.266;23.122;2023-01-27T07:37:08;94586.84;;;2.96;84.20
7754;BME280;3921;42.266;23.122;2023-01-27T07:39:35;94486.31;;;2.40;83.76
7754;BME280;3921;42.266;23.122;2023-01-27T07:42:07;94231.13;;;0.61;83.93
7754;BME280;3921;42.266;23.122;2023-01-27T07:44:56;94247.63;;;0.62;83.21
7754;BME280;3921;42.266;23.122;2023-01-27T07:47:31;94708.25;;;3.66;84.38
7754;BME280;3921;42.266;23.122;2023-01-27T07:50:03;94647.53;;;3.29;84.40
7754;BME280;3921;42.266;23.122;2023-01-27T07:52:30;94717.25;;;3.50;84.34
7754;BME280;3921;42.266;23.122;2023-01-27T07:54:58;94753.38;;;4.16;83.22
7754;BME280;3921;42.266;23.122;2023-01-27T07:57:29;94199.81;;;0.59;83.11
7754;BME280;3921;42.266;23.122;2023-01-27T07:59:57;94318.47;;;1.31;84.27
7754;BME280;3921;42.266;23.122;2023-01-27T08:13:19;94612.56;;;4.31;78.40
7754;BME280;3921;42.266;23.122;2023-01-27T08:15:57;94512.78;;;3.54;79.25
7754;BME280;3921;42.266;23.122;2023-01-27T08:18:29;94440.47;;;2.98;78.63
7754;BME280;3921;42.266;23.122;2023-01-27T08:20:58;94729.69;;;4.78;78.69
7754;BME280;3921;42.266;23.122;2023-01-27T08:23:31;94388.91;;;2.52;80.00
7754;BME280;3921;42.266;23.122;2023-01-27T08:26:00;94220.38;;;1.37;79.53
7754;BME280;3921;42.266;23.122;2023-01-27T08:28:30;94205.34;;;1.18;79.74
7754;BME280;3921;42.266;23.122;2023-01-27T08:31:04;94520.03;;;3.20;80.40
7754;BME280;3921;42.266;23.122;2023-01-27T08:33:33;94257.47;;;1.32;80.35
7754;BME280;3921;42.266;23.122;2023-01-27T08:36:05;94304.91;;;1.78;80.20
7754;BME280;3921;42.266;23.122;2023-01-27T08:38:33;94596.47;;;3.63;81.63
7754;BME280;3921;42.266;23.122;2023-01-27T08:41:03;94211.00;;;1.05;81.46
7754;BME280;3921;42.266;23.122;2023-01-27T08:43:33;94392.00;;;2.27;81.46
7754;BME280;3921;42.266;23.122;2023-01-27T08:46:04;94193.69;;;1.05;81.33
7754;BME280;3921;42.266;23.122;2023-01-27T08:48:32;94285.72;;;1.55;82.12
7754;BME280;3921;42.266;23.122;2023-01-27T08:51:09;94596.47;;;3.66;82.41
7754;BME280;3921;42.266;23.122;2023-01-27T08:53:40;94248.41;;;1.34;80.35
7754;BME280;3921;42.266;23.122;2023-01-27T08:56:13;94274.91;;;1.49;80.68
7754;BME280;3921;42.266;23.122;2023-01-27T08:59:08;94461.84;;;2.79;81.57
7754;BME280;3921;42.266;23.122;2023-01-27T09:01:50;94352.91;;;1.94;82.04
7754;BME280;3921;42.266;23.122;2023-01-27T09:04:17;94289.00;;;1.53;81.43
7754;BME280;3921;42.266;23.122;2023-01-27T09:07:08;94728.66;;;4.38;83.39
7754;BME280;3921;42.266;23.122;2023-01-27T09:09:35;94554.84;;;3.28;83.00
7754;BME280;3921;42.266;23.122;2023-01-27T09:12:08;94239.22;;;1.22;82.35
7754;BME280;3921;42.266;23.122;2023-01-27T09:14:37;94180.56;;;1.12;82.29
7754;BME280;3921;42.266;23.122;2023-01-27T09:17:07;94192.00;;;0.99;82.28
7754;BME280;3921;42.266;23.122;2023-01-27T09:19:39;94237.63;;;1.30;81.58
7754;BME280;3921;42.266;23.122;2023-01-27T09:22:08;94338.28;;;2.23;81.90
7754;BME280;3921;42.266;23.122;2023-01-27T09:24:51;94206.34;;;1.36;81.69
